Ana Sayfa
METAR-TAF:

METAR-TAF

Havaalanları :

Limni, Yunanistan

Enlem: 39-55N, Boylam: 025-14E, yükseklik: 5 m

Güncel hava durumu gözlemi

Rapor saat 17:20 UTC de 36 dakika önce yapıldı.
Rüzgar kuzeybatıdan 7 kt
Sıcaklık 28°C
Nem 51%
Basınç 1010 hPa
Görüş mesafesi 10 km veya daha fazla
1500 m altında bulut yok ve kümülonimbus yok

METAR: LGLM 181720Z 32007KT CAVOK 28/17 Q1010

Saat: 20:56 (17:56 UTC)

Tahmin

Rapor saat 17:00 UTC de 56 dakika önce yapıldı.
Ayın 18'si saat 18 UTC'den ayın 19'si saat 03 UTC'ye kadar geçerli Tahmin
Rüzgar kuzey/kuzeybatıdan 15 kt
Görüş mesafesi 10 km veya daha fazla
3000 ft yükseklikte az bulutlu
Dönüşüyor
ayın 18'si saat 19 UTC'den ayın 18'si saat 21 UTC'ye kadar
Rüzgar kuzeydoğudan 15 kt

TAF: LGLM 181700Z 1818/1903 33015KT 9999 FEW030 BECMG 1819/1821 04015KT

4.000'den fazla havaalanı için hava durumu gözlemleri ve tahminleri (METAR ve TAF raporları).

Kullanılabilir istasyonlar harita üzerinde sarı ve kırmızı noktalarla gösterilir.

İstasyonun adını görmek için fareyi noktanın üzerinde gezdirin.

Sonrasında hava gözlem ve tahminlerini görmek için tıklayın.

Haritayı değiştirmek için: yaklaştırmak için siyah artı işaretli yeşil düğmeye ve uzaklaştırmak için de eksi işaretli düğmeye hızla tıklayın; bitişik haritalar için yeşil okları kullanın.


METAR-TAF: